Time;durP1;ratioP1;P1;durP2;ratioP2;P2;SDS_P1;SDS_P2;PMS_P1;PMS_P2;Temp;Humidity;BMP_temperature;BMP_pressure;BME280_temperature;BME280_humidity;BME280_pressure;Samples;Min_cycle;Max_cycle;Signal;HPM_P1;HPM_P2
2021/10/13 00:01:49;;;;;;;4.95;3.67;;;;;;;;;;5064174;28;20181;-89
2021/10/13 00:04:15;;;;;;;4.25;3.17;;;;;;;;;;5064178;28;20185;-89
2021/10/13 00:06:40;;;;;;;5.87;4.30;;;;;;;;;;5057892;28;20189;-88
2021/10/13 00:09:07;;;;;;;4.53;3.33;;;;;;;;;;5061686;28;20501;-88
2021/10/13 00:11:33;;;;;;;4.75;3.60;;;;;;;;;;5073125;28;20459;-90
2021/10/13 00:14:00;;;;;;;8.30;3.80;;;;;;;;;;5061657;28;20197;-89
2021/10/13 00:16:26;;;;;;;5.72;3.25;;;;;;;;;;5061221;28;20246;-89
2021/10/13 00:18:52;;;;;;;6.13;3.70;;;;;;;;;;5061212;28;20190;-88
2021/10/13 00:21:18;;;;;;;4.53;3.60;;;;;;;;;;5060498;28;20213;-88
2021/10/13 00:23:44;;;;;;;5.05;3.50;;;;;;;;;;5074380;28;20539;-90
2021/10/13 00:26:10;;;;;;;4.60;3.45;;;;;;;;;;5064947;28;20184;-89
2021/10/13 00:28:36;;;;;;;5.10;4.00;;;;;;;;;;5058732;28;20170;-90
2021/10/13 00:31:02;;;;;;;6.30;3.97;;;;;;;;;;5055570;28;20281;-89
2021/10/13 00:33:28;;;;;;;6.85;2.88;;;;;;;;;;5063077;28;20173;-90
2021/10/13 00:35:54;;;;;;;5.35;3.45;;;;;;;;;;5061356;28;20186;-90
2021/10/13 00:38:20;;;;;;;6.47;3.50;;;;;;;;;;5058107;28;20248;-89
2021/10/13 00:40:46;;;;;;;8.38;3.45;;;;;;;;;;5063635;28;20447;-90
2021/10/13 00:43:12;;;;;;;7.53;3.55;;;;;;;;;;5059317;28;20248;-90
2021/10/13 00:45:38;;;;;;;6.13;3.72;;;;;;;;;;5057610;28;20189;-89
2021/10/13 00:48:04;;;;;;;3.80;3.50;;;;;;;;;;5061482;28;20195;-90
2021/10/13 00:50:30;;;;;;;5.68;4.10;;;;;;;;;;5051740;28;20459;-89
2021/10/13 00:52:56;;;;;;;4.20;3.40;;;;;;;;;;5063824;28;20197;-90
2021/10/13 00:55:23;;;;;;;7.93;3.15;;;;;;;;;;5057807;28;20185;-89
2021/10/13 00:57:50;;;;;;;6.07;3.75;;;;;;;;;;5060028;28;20181;-89
2021/10/13 01:00:17;;;;;;;4.60;3.13;;;;;;;;;;5059426;28;20177;-90
2021/10/13 01:03:01;;;;;;;4.53;4.07;;;;;;;;;;5058051;28;20186;-89
2021/10/13 01:05:37;;;;;;;4.22;3.65;;;;;;;;;;5056257;28;20192;-88
2021/10/13 01:08:15;;;;;;;13.75;3.63;;;;;;;;;;5061535;28;20223;-89
2021/10/13 01:10:47;;;;;;;7.90;4.05;;;;;;;;;;5057304;28;20201;-90
2021/10/13 01:13:24;;;;;;;5.53;3.92;;;;;;;;;;5053939;28;20234;-90
2021/10/13 01:15:55;;;;;;;6.07;3.97;;;;;;;;;;5057937;28;20185;-90
2021/10/13 01:18:24;;;;;;;5.72;3.60;;;;;;;;;;5059471;28;20204;-89
2021/10/13 01:20:50;;;;;;;4.97;3.22;;;;;;;;;;5057835;28;20193;-89
2021/10/13 01:23:25;;;;;;;5.07;3.70;;;;;;;;;;5060606;28;20175;-90
2021/10/13 01:26:00;;;;;;;4.55;3.47;;;;;;;;;;5062994;28;20415;-90
2021/10/13 01:28:30;;;;;;;3.75;3.03;;;;;;;;;;5055885;28;20184;-89
2021/10/13 01:31:04;;;;;;;9.32;3.90;;;;;;;;;;5055673;28;20276;-89
2021/10/13 01:33:33;;;;;;;5.97;4.25;;;;;;;;;;5056813;28;20647;-90
2021/10/13 01:36:00;;;;;;;3.70;3.25;;;;;;;;;;5058807;28;20180;-90
2021/10/13 01:38:28;;;;;;;4.25;3.30;;;;;;;;;;5056154;28;20176;-90
2021/10/13 01:40:58;;;;;;;5.78;3.58;;;;;;;;;;5060097;28;20260;-91
2021/10/13 01:43:25;;;;;;;7.03;3.20;;;;;;;;;;5058138;28;20220;-91
2021/10/13 01:45:52;;;;;;;5.40;3.60;;;;;;;;;;5055104;28;20186;-91
2021/10/13 01:48:19;;;;;;;5.82;3.80;;;;;;;;;;5057911;28;20211;-90
2021/10/13 01:50:46;;;;;;;7.50;3.70;;;;;;;;;;5064795;28;20448;-89
2021/10/13 01:53:13;;;;;;;7.75;3.92;;;;;;;;;;5059683;28;20173;-90
2021/10/13 01:55:40;;;;;;;4.13;3.30;;;;;;;;;;5056862;28;20177;-91
2021/10/13 01:58:06;;;;;;;3.45;3.15;;;;;;;;;;5055042;28;20228;-92
2021/10/13 02:00:32;;;;;;;5.45;3.63;;;;;;;;;;5058445;28;20180;-91
2021/10/13 02:02:59;;;;;;;5.50;3.58;;;;;;;;;;5059732;28;20256;-91
2021/10/13 02:05:26;;;;;;;5.85;3.60;;;;;;;;;;5060481;28;20565;-90
2021/10/13 02:07:53;;;;;;;6.00;3.47;;;;;;;;;;5062710;28;20172;-91
2021/10/13 02:10:21;;;;;;;4.03;3.03;;;;;;;;;;5053921;28;20181;-91
2021/10/13 02:12:48;;;;;;;7.45;3.15;;;;;;;;;;5052717;28;20249;-91
2021/10/13 02:15:15;;;;;;;7.30;3.15;;;;;;;;;;5058256;28;20189;-92
2021/10/13 02:17:42;;;;;;;3.97;3.50;;;;;;;;;;5072015;28;20212;-91
2021/10/13 02:20:09;;;;;;;3.78;3.47;;;;;;;;;;5056332;28;20169;-90
2021/10/13 02:22:35;;;;;;;4.68;3.60;;;;;;;;;;5057588;28;20603;-91
2021/10/13 02:25:01;;;;;;;3.30;3.00;;;;;;;;;;5054892;28;20186;-90
2021/10/13 02:27:33;;;;;;;3.78;3.35;;;;;;;;;;5055880;28;20209;-91
2021/10/13 02:30:00;;;;;;;4.15;3.40;;;;;;;;;;5071673;28;20189;-92
2021/10/13 02:32:26;;;;;;;5.45;3.08;;;;;;;;;;5057640;28;20292;-91
2021/10/13 02:34:53;;;;;;;5.32;3.00;;;;;;;;;;5064590;28;20374;-92
2021/10/13 02:37:19;;;;;;;4.50;3.40;;;;;;;;;;5060985;28;20177;-90
2021/10/13 02:39:45;;;;;;;4.25;3.70;;;;;;;;;;5058839;28;20721;-89
2021/10/13 02:42:11;;;;;;;5.18;3.50;;;;;;;;;;5058654;28;20208;-92
2021/10/13 02:44:37;;;;;;;6.20;4.18;;;;;;;;;;5050379;28;20248;-90
2021/10/13 02:47:06;;;;;;;4.00;3.55;;;;;;;;;;5062501;28;20680;-90
2021/10/13 02:49:35;;;;;;;8.25;3.55;;;;;;;;;;5056264;28;20187;-91
2021/10/13 02:52:16;;;;;;;5.68;4.50;;;;;;;;;;5058057;28;20197;-91
2021/10/13 02:54:48;;;;;;;5.22;3.50;;;;;;;;;;5055412;28;20208;-91
2021/10/13 02:57:14;;;;;;;6.30;3.35;;;;;;;;;;5047822;28;20178;-92
2021/10/13 02:59:42;;;;;;;7.10;3.70;;;;;;;;;;5071380;28;20674;-92
2021/10/13 03:02:11;;;;;;;7.15;3.67;;;;;;;;;;5061260;28;20181;-91
2021/10/13 03:04:40;;;;;;;8.55;3.20;;;;;;;;;;5059068;28;20173;-92
2021/10/13 03:07:07;;;;;;;6.35;4.10;;;;;;;;;;5056086;28;20181;-91
2021/10/13 03:09:34;;;;;;;7.63;3.95;;;;;;;;;;5055816;28;20178;-92
2021/10/13 03:12:02;;;;;;;4.47;3.60;;;;;;;;;;5057818;28;20212;-91
2021/10/13 03:14:28;;;;;;;3.40;3.10;;;;;;;;;;5054119;28;20181;-92
2021/10/13 03:16:55;;;;;;;4.50;3.83;;;;;;;;;;5059741;28;20173;-93
2021/10/13 03:19:22;;;;;;;6.00;3.70;;;;;;;;;;5058970;28;20192;-90
2021/10/13 03:21:49;;;;;;;5.05;3.20;;;;;;;;;;5056134;28;20261;-91
2021/10/13 03:24:16;;;;;;;4.57;3.60;;;;;;;;;;5060086;28;20652;-92
2021/10/13 03:26:49;;;;;;;5.05;3.42;;;;;;;;;;5075722;28;20192;-92
2021/10/13 03:29:15;;;;;;;4.30;3.00;;;;;;;;;;5060252;28;20196;-91
2021/10/13 03:31:42;;;;;;;8.13;4.18;;;;;;;;;;5060717;28;20193;-92
2021/10/13 03:34:09;;;;;;;3.85;3.53;;;;;;;;;;5062415;28;20214;-91
2021/10/13 03:36:39;;;;;;;3.22;2.92;;;;;;;;;;5059017;28;20178;-92
2021/10/13 03:39:05;;;;;;;5.15;3.70;;;;;;;;;;5076845;28;20204;-92
2021/10/13 03:41:31;;;;;;;6.78;3.40;;;;;;;;;;5063601;28;20193;-92
2021/10/13 03:43:57;;;;;;;8.80;4.80;;;;;;;;;;5063226;28;20233;-92
2021/10/13 03:46:23;;;;;;;4.90;3.40;;;;;;;;;;5062520;28;20989;-93
2021/10/13 03:48:51;;;;;;;4.63;3.90;;;;;;;;;;5059525;28;20451;-92
2021/10/13 03:51:20;;;;;;;3.60;3.30;;;;;;;;;;5060532;28;20296;-93
2021/10/13 03:53:46;;;;;;;5.20;3.10;;;;;;;;;;5077479;28;20188;-93
2021/10/13 03:56:13;;;;;;;4.50;4.10;;;;;;;;;;5060298;28;20229;-94
2021/10/13 03:58:39;;;;;;;8.32;3.65;;;;;;;;;;5058953;28;20180;-93
2021/10/13 04:01:05;;;;;;;3.55;2.90;;;;;;;;;;5056617;28;20185;-93
2021/10/13 04:03:31;;;;;;;5.25;3.40;;;;;;;;;;5059403;28;20190;-89
2021/10/13 04:05:57;;;;;;;5.70;3.87;;;;;;;;;;5073355;28;20547;-93
2021/10/13 04:08:23;;;;;;;5.90;3.40;;;;;;;;;;5056819;28;20448;-94
2021/10/13 04:10:49;;;;;;;5.03;3.70;;;;;;;;;;5059549;28;20211;-93
2021/10/13 04:13:15;;;;;;;4.32;3.85;;;;;;;;;;5061146;28;20207;-93
2021/10/13 04:15:41;;;;;;;7.72;3.58;;;;;;;;;;5059961;28;20189;-92
2021/10/13 04:18:07;;;;;;;3.75;3.45;;;;;;;;;;5074664;28;20184;-92
2021/10/13 04:20:33;;;;;;;6.55;3.50;;;;;;;;;;5062782;28;20181;-91
2021/10/13 04:22:59;;;;;;;4.10;3.55;;;;;;;;;;5062487;28;20177;-93
2021/10/13 04:25:25;;;;;;;5.15;4.05;;;;;;;;;;5057075;28;20564;-92
2021/10/13 04:27:51;;;;;;;4.22;3.55;;;;;;;;;;5056416;28;20193;-94
2021/10/13 04:30:17;;;;;;;3.65;3.30;;;;;;;;;;5059765;28;20181;-92
2021/10/13 04:32:44;;;;;;;4.43;3.47;;;;;;;;;;5058304;28;20209;-94
2021/10/13 04:35:10;;;;;;;3.25;2.95;;;;;;;;;;5057486;28;20177;-92
2021/10/13 04:37:36;;;;;;;3.85;3.55;;;;;;;;;;5058280;28;20231;-93
2021/10/13 04:40:04;;;;;;;4.97;3.40;;;;;;;;;;5060660;28;20216;-93
2021/10/13 04:42:30;;;;;;;6.28;3.50;;;;;;;;;;5059769;28;20407;-93
2021/10/13 04:44:56;;;;;;;4.97;3.50;;;;;;;;;;5060656;28;20232;-93
2021/10/13 04:47:22;;;;;;;4.05;2.90;;;;;;;;;;5059046;28;20197;-92
2021/10/13 04:49:48;;;;;;;4.53;3.27;;;;;;;;;;5060594;28;20180;-92
2021/10/13 04:52:14;;;;;;;5.57;3.05;;;;;;;;;;5060807;28;20463;-92
2021/10/13 04:54:40;;;;;;;4.45;3.92;;;;;;;;;;5063582;28;20239;-93
2021/10/13 04:57:06;;;;;;;4.10;3.70;;;;;;;;;;5061211;28;20254;-92
2021/10/13 04:59:32;;;;;;;6.35;3.65;;;;;;;;;;5063467;28;20190;-92
2021/10/13 05:01:57;;;;;;;3.47;2.85;;;;;;;;;;5060222;28;20276;-92
2021/10/13 05:04:23;;;;;;;4.30;3.37;;;;;;;;;;5056970;28;20271;-93
2021/10/13 05:06:49;;;;;;;2.83;2.63;;;;;;;;;;5055924;28;20447;-93
2021/10/13 05:09:16;;;;;;;5.85;3.50;;;;;;;;;;5059793;28;20432;-92
2021/10/13 05:11:42;;;;;;;3.22;2.95;;;;;;;;;;5059800;28;20209;-92
2021/10/13 05:14:08;;;;;;;4.63;3.30;;;;;;;;;;5059340;28;20731;-91
2021/10/13 05:16:34;;;;;;;5.50;3.47;;;;;;;;;;5058726;28;20169;-91
2021/10/13 05:19:00;;;;;;;4.30;3.30;;;;;;;;;;5055779;28;20186;-91
2021/10/13 05:21:27;;;;;;;3.83;3.20;;;;;;;;;;5060045;28;20348;-91
2021/10/13 05:23:53;;;;;;;6.93;3.35;;;;;;;;;;5061224;28;20201;-91
2021/10/13 05:26:19;;;;;;;5.30;3.30;;;;;;;;;;5058212;28;20176;-90
2021/10/13 05:28:45;;;;;;;4.28;3.20;;;;;;;;;;5063119;28;20423;-90
2021/10/13 05:31:11;;;;;;;4.32;2.92;;;;;;;;;;5059400;28;20224;-88
2021/10/13 05:33:37;;;;;;;6.07;3.90;;;;;;;;;;5057105;28;20311;-89
2021/10/13 05:36:03;;;;;;;4.22;3.72;;;;;;;;;;5060495;28;20185;-90
2021/10/13 05:38:29;;;;;;;6.65;3.70;;;;;;;;;;5060573;28;20192;-90
2021/10/13 05:40:55;;;;;;;6.85;3.97;;;;;;;;;;5062898;28;20169;-89
2021/10/13 05:43:21;;;;;;;8.35;6.10;;;;;;;;;;5059242;28;20220;-90
2021/10/13 05:45:47;;;;;;;9.00;5.68;;;;;;;;;;5055913;28;20208;-90
2021/10/13 05:48:14;;;;;;;6.70;5.20;;;;;;;;;;5060774;28;20185;-89
2021/10/13 05:50:40;;;;;;;7.88;4.88;;;;;;;;;;5071804;28;20204;-90
2021/10/13 05:53:06;;;;;;;11.55;5.65;;;;;;;;;;5058137;28;20187;-90
2021/10/13 05:55:32;;;;;;;6.20;3.83;;;;;;;;;;5062267;28;20197;-89
2021/10/13 05:58:02;;;;;;;7.95;4.28;;;;;;;;;;5059246;28;20634;-91
2021/10/13 06:00:28;;;;;;;8.57;4.32;;;;;;;;;;5057696;28;20181;-90
2021/10/13 06:02:55;;;;;;;5.68;4.70;;;;;;;;;;5073307;28;20177;-90
2021/10/13 06:05:21;;;;;;;5.82;4.25;;;;;;;;;;5056087;28;20173;-89
2021/10/13 06:07:46;;;;;;;4.32;3.92;;;;;;;;;;5058171;28;20236;-87
2021/10/13 06:10:12;;;;;;;5.17;3.30;;;;;;;;;;5055641;28;20200;-90
2021/10/13 06:12:38;;;;;;;9.07;3.38;;;;;;;;;;5055687;28;20464;-90
2021/10/13 06:15:05;;;;;;;4.55;2.80;;;;;;;;;;5058693;28;20617;-89
2021/10/13 06:17:31;;;;;;;5.93;3.65;;;;;;;;;;5071059;28;20181;-89
2021/10/13 06:19:57;;;;;;;7.43;3.88;;;;;;;;;;5062819;28;20197;-87
2021/10/13 06:22:23;;;;;;;8.15;4.10;;;;;;;;;;5054937;28;20185;-86
2021/10/13 06:24:49;;;;;;;3.78;2.97;;;;;;;;;;5055425;28;20188;-88
2021/10/13 06:27:16;;;;;;;6.18;4.03;;;;;;;;;;5059897;28;20204;-89
2021/10/13 06:29:42;;;;;;;5.75;3.47;;;;;;;;;;5060773;28;20193;-88
2021/10/13 06:32:11;;;;;;;7.90;4.18;;;;;;;;;;5057150;28;20219;-87
2021/10/13 06:34:37;;;;;;;4.53;4.10;;;;;;;;;;5061862;28;20868;-88
2021/10/13 06:37:03;;;;;;;8.25;5.90;;;;;;;;;;5052405;28;20208;-89
2021/10/13 06:39:29;;;;;;;8.00;5.50;;;;;;;;;;5056336;28;20203;-84
2021/10/13 06:41:55;;;;;;;8.27;6.93;;;;;;;;;;5052102;28;20197;-84
2021/10/13 06:44:21;;;;;;;20.00;8.13;;;;;;;;;;5052529;28;20471;-83
2021/10/13 06:46:50;;;;;;;8.50;7.65;;;;;;;;;;5053192;28;20181;-83
2021/10/13 06:49:16;;;;;;;7.63;5.35;;;;;;;;;;5051331;28;20180;-84
2021/10/13 06:51:42;;;;;;;8.15;6.25;;;;;;;;;;5056378;28;20235;-84
2021/10/13 06:54:08;;;;;;;6.43;5.18;;;;;;;;;;5058034;28;20188;-83
2021/10/13 06:56:35;;;;;;;7.55;5.35;;;;;;;;;;5052971;28;20185;-84
2021/10/13 06:59:01;;;;;;;4.75;4.25;;;;;;;;;;5061613;28;20189;-84
2021/10/13 07:01:27;;;;;;;6.45;4.30;;;;;;;;;;5057740;28;20192;-83
2021/10/13 07:03:53;;;;;;;8.23;4.80;;;;;;;;;;5055530;28;20186;-85
2021/10/13 07:06:19;;;;;;;9.07;5.57;;;;;;;;;;5062004;28;20436;-86
2021/10/13 07:08:46;;;;;;;7.18;5.10;;;;;;;;;;5065660;28;20204;-82
2021/10/13 07:11:12;;;;;;;10.23;4.90;;;;;;;;;;5061301;28;20193;-84
2021/10/13 07:13:38;;;;;;;4.80;4.40;;;;;;;;;;5061104;28;20257;-83
2021/10/13 07:16:04;;;;;;;6.75;3.85;;;;;;;;;;5054823;28;20193;-83
2021/10/13 07:18:31;;;;;;;7.07;4.95;;;;;;;;;;5061992;28;20177;-85
2021/10/13 07:20:57;;;;;;;5.10;4.38;;;;;;;;;;5062592;28;20419;-85
2021/10/13 07:23:23;;;;;;;4.97;4.35;;;;;;;;;;5058432;28;20483;-84
2021/10/13 07:25:49;;;;;;;7.43;5.30;;;;;;;;;;5059262;28;20738;-84
2021/10/13 07:28:15;;;;;;;10.80;6.80;;;;;;;;;;5053630;28;20438;-84
2021/10/13 07:30:41;;;;;;;12.38;6.82;;;;;;;;;;5070576;28;20217;-85
2021/10/13 07:33:07;;;;;;;14.82;6.07;;;;;;;;;;5051476;28;20655;-84
2021/10/13 07:35:35;;;;;;;8.68;6.20;;;;;;;;;;5063262;28;20179;-83
2021/10/13 07:38:01;;;;;;;14.68;7.38;;;;;;;;;;5065092;28;20184;-85
2021/10/13 07:40:28;;;;;;;14.85;8.10;;;;;;;;;;5062262;28;20239;-86
2021/10/13 07:42:54;;;;;;;9.50;8.30;;;;;;;;;;5061811;28;20227;-86
2021/10/13 07:45:20;;;;;;;10.85;7.70;;;;;;;;;;5062529;28;20255;-87
2021/10/13 07:47:46;;;;;;;9.10;6.80;;;;;;;;;;5057885;28;20185;-87
2021/10/13 07:50:12;;;;;;;13.32;6.85;;;;;;;;;;5064406;28;20181;-86
2021/10/13 07:52:39;;;;;;;8.90;6.32;;;;;;;;;;5061485;28;20585;-87
2021/10/13 07:55:05;;;;;;;8.32;6.68;;;;;;;;;;5062489;28;20191;-87
2021/10/13 07:57:31;;;;;;;10.68;7.70;;;;;;;;;;5063623;28;20182;-87
2021/10/13 07:59:57;;;;;;;7.22;6.13;;;;;;;;;;5062585;28;20681;-87
2021/10/13 08:02:23;;;;;;;7.10;6.40;;;;;;;;;;5058698;28;20201;-86
2021/10/13 08:04:49;;;;;;;9.02;6.70;;;;;;;;;;5064510;28;20431;-87
2021/10/13 08:07:16;;;;;;;13.57;7.00;;;;;;;;;;5057595;28;20181;-87
2021/10/13 08:09:42;;;;;;;8.10;6.82;;;;;;;;;;5057975;28;20185;-87
2021/10/13 08:12:09;;;;;;;9.40;6.93;;;;;;;;;;5072691;28;20289;-87
2021/10/13 08:14:35;;;;;;;11.65;7.50;;;;;;;;;;5062708;28;20177;-88
2021/10/13 08:17:02;;;;;;;9.00;8.20;;;;;;;;;;5066653;28;20252;-88
2021/10/13 08:19:28;;;;;;;11.27;7.38;;;;;;;;;;5061898;28;20255;-87
2021/10/13 08:21:54;;;;;;;14.75;6.50;;;;;;;;;;5060630;28;20189;-86
2021/10/13 08:24:20;;;;;;;8.13;6.72;;;;;;;;;;5059896;28;20224;-88
2021/10/13 08:26:47;;;;;;;10.02;6.85;;;;;;;;;;5054419;28;20185;-84
2021/10/13 08:29:13;;;;;;;7.72;5.88;;;;;;;;;;5056674;28;20193;-86
2021/10/13 08:31:39;;;;;;;14.68;5.57;;;;;;;;;;5061495;28;20729;-84
2021/10/13 08:34:05;;;;;;;6.45;4.55;;;;;;;;;;5059981;28;20212;-88
2021/10/13 08:36:31;;;;;;;8.15;4.65;;;;;;;;;;5068543;28;20182;-88
2021/10/13 08:38:57;;;;;;;9.63;4.20;;;;;;;;;;5055147;28;20188;-89
2021/10/13 08:41:23;;;;;;;9.23;4.05;;;;;;;;;;5054730;28;20487;-90
2021/10/13 08:43:49;;;;;;;5.72;4.63;;;;;;;;;;5058053;28;20225;-90
2021/10/13 08:46:15;;;;;;;7.38;4.57;;;;;;;;;;5058593;28;20177;-89
2021/10/13 08:48:42;;;;;;;9.25;4.15;;;;;;;;;;5049785;28;20182;-88
2021/10/13 08:51:07;;;;;;;5.32;4.05;;;;;;;;;;5059523;28;20667;-87
2021/10/13 08:53:33;;;;;;;4.03;3.25;;;;;;;;;;5060543;28;20216;-89
2021/10/13 08:56:00;;;;;;;7.10;4.15;;;;;;;;;;5058397;28;20186;-88
2021/10/13 08:58:27;;;;;;;5.90;3.80;;;;;;;;;;5053912;28;20185;-86
2021/10/13 09:01:09;;;;;;;4.30;2.85;;;;;;;;;;5060635;28;20193;-86
2021/10/13 09:03:36;;;;;;;7.82;3.42;;;;;;;;;;5057409;28;20177;-86
2021/10/13 09:06:17;;;;;;;5.68;3.17;;;;;;;;;;5060390;28;20181;-86
2021/10/13 09:08:53;;;;;;;7.53;3.08;;;;;;;;;;5073083;28;20264;-86
2021/10/13 09:11:28;;;;;;;3.22;2.80;;;;;;;;;;5057721;28;20212;-86
2021/10/13 09:14:17;;;;;;;5.30;3.17;;;;;;;;;;5061205;28;20176;-86
2021/10/13 09:17:00;;;;;;;10.63;4.93;;;;;;;;;;5062943;28;20177;-86
2021/10/13 09:19:28;;;;;;;4.07;3.22;;;;;;;;;;5058423;28;20185;-86
2021/10/13 09:21:59;;;;;;;6.65;3.17;;;;;;;;;;5060254;28;20226;-86
2021/10/13 09:24:26;;;;;;;9.38;2.58;;;;;;;;;;5061710;28;20189;-87
2021/10/13 09:26:53;;;;;;;5.47;3.10;;;;;;;;;;5058948;28;20197;-85
2021/10/13 09:29:20;;;;;;;8.27;2.88;;;;;;;;;;5048071;28;20256;-85
2021/10/13 09:31:53;;;;;;;5.60;1.65;;;;;;;;;;5062082;28;20193;-85
2021/10/13 09:34:20;;;;;;;5.35;1.92;;;;;;;;;;5059947;28;20211;-83
2021/10/13 09:36:51;;;;;;;5.38;2.00;;;;;;;;;;5055242;28;20190;-85
2021/10/13 09:39:18;;;;;;;3.58;2.20;;;;;;;;;;5059015;28;20181;-85
2021/10/13 09:42:03;;;;;;;9.45;2.65;;;;;;;;;;5060624;28;20569;-87
2021/10/13 09:44:30;;;;;;;5.43;2.00;;;;;;;;;;5060050;28;20229;-86
2021/10/13 09:46:57;;;;;;;3.55;1.90;;;;;;;;;;5058865;28;20178;-85
2021/10/13 09:49:27;;;;;;;2.40;1.65;;;;;;;;;;5060235;28;20268;-84
2021/10/13 09:51:59;;;;;;;7.25;2.00;;;;;;;;;;5054705;28;20373;-84
2021/10/13 09:54:26;;;;;;;7.60;2.83;;;;;;;;;;5056152;28;20181;-85
2021/10/13 09:56:52;;;;;;;4.15;1.92;;;;;;;;;;5057702;28;20188;-85
2021/10/13 09:59:18;;;;;;;3.85;2.30;;;;;;;;;;5061694;28;20212;-85
2021/10/13 10:01:55;;;;;;;3.38;1.80;;;;;;;;;;5072127;28;20173;-84
2021/10/13 10:04:22;;;;;;;4.18;1.80;;;;;;;;;;5057658;28;20191;-85
2021/10/13 10:06:55;;;;;;;8.23;2.60;;;;;;;;;;5057724;28;20181;-84
2021/10/13 10:09:23;;;;;;;5.07;2.50;;;;;;;;;;5057222;28;20184;-85
2021/10/13 10:11:50;;;;;;;4.70;2.20;;;;;;;;;;5057135;28;20225;-85
2021/10/13 10:14:37;;;;;;;5.13;2.00;;;;;;;;;;5056145;28;20184;-84
2021/10/13 10:17:05;;;;;;;9.00;1.88;;;;;;;;;;5053876;28;20192;-84
2021/10/13 10:19:38;;;;;;;7.85;2.13;;;;;;;;;;5057527;28;20201;-85
2021/10/13 10:22:12;;;;;;;3.30;2.00;;;;;;;;;;5055390;28;20185;-85
2021/10/13 10:24:39;;;;;;;2.90;1.48;;;;;;;;;;5056924;28;20264;-85
2021/10/13 10:27:21;;;;;;;2.65;1.50;;;;;;;;;;5060517;28;20185;-86
2021/10/13 10:29:47;;;;;;;6.68;2.30;;;;;;;;;;5072388;28;20185;-86
2021/10/13 10:32:14;;;;;;;4.13;2.03;;;;;;;;;;5058079;28;20251;-88
2021/10/13 10:35:00;;;;;;;6.45;1.98;;;;;;;;;;5054981;28;20180;-88
2021/10/13 10:37:37;;;;;;;3.13;2.15;;;;;;;;;;5057040;28;20185;-84
2021/10/13 10:40:05;;;;;;;2.10;1.60;;;;;;;;;;5060552;28;20184;-86
2021/10/13 10:42:43;;;;;;;7.82;2.40;;;;;;;;;;5061503;28;20595;-86
2021/10/13 10:45:12;;;;;;;2.35;1.20;;;;;;;;;;5062613;28;20296;-85
2021/10/13 10:47:50;;;;;;;6.63;1.58;;;;;;;;;;5060179;28;20250;-86
2021/10/13 10:50:27;;;;;;;3.72;1.75;;;;;;;;;;5061368;28;20177;-86
2021/10/13 10:53:07;;;;;;;3.35;1.25;;;;;;;;;;5076123;28;20208;-85
2021/10/13 10:55:37;;;;;;;5.00;1.65;;;;;;;;;;5061064;28;20173;-88
2021/10/13 10:58:23;;;;;;;3.55;1.83;;;;;;;;;;5061706;28;20177;-87
2021/10/13 11:01:03;;;;;;;3.17;1.20;;;;;;;;;;5059804;28;20201;-86
2021/10/13 11:03:36;;;;;;;2.13;1.30;;;;;;;;;;5060171;28;20185;-85
2021/10/13 11:06:13;;;;;;;3.10;1.60;;;;;;;;;;5062306;28;20181;-84
2021/10/13 11:08:52;;;;;;;3.53;1.52;;;;;;;;;;5055397;28;20549;-86
2021/10/13 11:11:18;;;;;;;6.15;2.38;;;;;;;;;;5059083;28;20255;-86
2021/10/13 11:14:01;;;;;;;3.17;1.60;;;;;;;;;;5057707;28;20581;-87
2021/10/13 11:16:28;;;;;;;3.95;1.63;;;;;;;;;;5061229;28;20192;-87
2021/10/13 11:18:54;;;;;;;3.75;1.50;;;;;;;;;;5064892;28;20186;-91
2021/10/13 11:21:20;;;;;;;2.83;1.55;;;;;;;;;;5059635;28;20178;-87
2021/10/13 11:23:47;;;;;;;3.65;1.40;;;;;;;;;;5060461;28;20245;-88
2021/10/13 11:26:13;;;;;;;2.65;1.25;;;;;;;;;;5060429;28;20443;-85
2021/10/13 11:28:41;;;;;;;3.05;1.52;;;;;;;;;;5062745;28;20181;-86
2021/10/13 11:31:08;;;;;;;3.42;1.95;;;;;;;;;;5060728;28;20229;-90
2021/10/13 11:33:34;;;;;;;3.78;1.75;;;;;;;;;;5061092;28;20220;-87
2021/10/13 11:36:01;;;;;;;5.07;1.70;;;;;;;;;;5060035;28;20178;-84
2021/10/13 11:38:31;;;;;;;2.95;1.60;;;;;;;;;;5062309;28;20195;-87
2021/10/13 11:41:05;;;;;;;6.30;1.75;;;;;;;;;;5077906;28;20179;-84
2021/10/13 11:43:31;;;;;;;6.80;1.80;;;;;;;;;;5062322;28;20214;-87
2021/10/13 11:45:57;;;;;;;4.90;1.50;;;;;;;;;;5061186;28;20251;-84
2021/10/13 11:48:24;;;;;;;3.28;1.58;;;;;;;;;;5061852;28;20207;-84
2021/10/13 11:50:50;;;;;;;2.92;1.98;;;;;;;;;;5061150;28;20196;-87
2021/10/13 11:53:16;;;;;;;4.63;1.70;;;;;;;;;;5062599;28;20169;-88
2021/10/13 11:55:42;;;;;;;4.75;1.65;;;;;;;;;;5065904;28;20196;-87
2021/10/13 11:58:08;;;;;;;4.63;1.73;;;;;;;;;;5058177;28;20175;-85
2021/10/13 12:00:54;;;;;;;5.90;1.60;;;;;;;;;;5056867;28;20481;-89
2021/10/13 12:03:28;;;;;;;3.05;1.50;;;;;;;;;;5049323;28;20541;-88
2021/10/13 12:05:54;;;;;;;2.45;1.20;;;;;;;;;;5063604;28;20521;-88
2021/10/13 12:08:33;;;;;;;2.92;1.25;;;;;;;;;;5063215;28;20183;-86
2021/10/13 12:11:13;;;;;;;1.73;1.42;;;;;;;;;;5062357;28;20303;-88
2021/10/13 12:13:40;;;;;;;3.20;1.73;;;;;;;;;;5061645;28;20190;-87
2021/10/13 12:16:07;;;;;;;1.98;1.48;;;;;;;;;;5059363;28;20203;-86
2021/10/13 12:18:38;;;;;;;6.85;1.52;;;;;;;;;;5062166;28;20246;-87
2021/10/13 12:21:03;;;;;;;2.95;1.50;;;;;;;;;;5063540;28;20183;-86
2021/10/13 12:23:31;;;;;;;4.53;2.07;;;;;;;;;;5059389;28;20635;-86
2021/10/13 12:25:58;;;;;;;2.55;1.70;;;;;;;;;;5061588;28;20451;-86
2021/10/13 12:28:25;;;;;;;2.50;1.52;;;;;;;;;;5057939;28;20187;-88
2021/10/13 12:30:59;;;;;;;2.95;1.27;;;;;;;;;;5057194;28;20197;-87
2021/10/13 12:33:25;;;;;;;8.05;2.83;;;;;;;;;;5060334;28;20208;-87
2021/10/13 12:35:51;;;;;;;3.97;1.75;;;;;;;;;;5063493;28;20182;-87
2021/10/13 12:38:20;;;;;;;3.35;1.50;;;;;;;;;;5060581;28;20180;-89
2021/10/13 12:41:03;;;;;;;3.35;1.60;;;;;;;;;;5059905;28;20174;-88
2021/10/13 12:43:29;;;;;;;3.28;1.40;;;;;;;;;;5058210;28;20248;-86
2021/10/13 12:45:55;;;;;;;3.03;1.48;;;;;;;;;;5057467;28;20194;-88
2021/10/13 12:48:22;;;;;;;2.38;1.20;;;;;;;;;;5062258;28;20187;-89
2021/10/13 12:51:05;;;;;;;3.53;1.70;;;;;;;;;;5074049;28;20182;-93
2021/10/13 12:53:31;;;;;;;3.50;1.92;;;;;;;;;;5057230;28;20902;-84
2021/10/13 12:55:57;;;;;;;3.00;1.10;;;;;;;;;;5061902;28;20179;-87
2021/10/13 12:58:27;;;;;;;2.22;1.50;;;;;;;;;;5061244;28;20185;-87
2021/10/13 13:00:53;;;;;;;3.25;1.30;;;;;;;;;;5058147;28;20300;-86
2021/10/13 13:03:19;;;;;;;2.58;1.35;;;;;;;;;;5057795;28;20247;-86
2021/10/13 13:05:45;;;;;;;3.55;1.33;;;;;;;;;;5060986;28;20182;-87
2021/10/13 13:08:11;;;;;;;4.55;1.80;;;;;;;;;;5061383;28;20716;-88
2021/10/13 13:10:37;;;;;;;4.83;1.60;;;;;;;;;;5058837;28;20179;-89
2021/10/13 13:13:03;;;;;;;3.00;1.50;;;;;;;;;;5059432;28;20472;-86
2021/10/13 13:15:29;;;;;;;2.67;1.07;;;;;;;;;;5057765;28;20531;-88
2021/10/13 13:17:55;;;;;;;4.00;1.63;;;;;;;;;;5058300;28;20507;-87
2021/10/13 13:20:21;;;;;;;2.63;1.17;;;;;;;;;;5050023;28;20188;-87
2021/10/13 13:22:47;;;;;;;3.90;1.40;;;;;;;;;;5057146;28;20207;-87
2021/10/13 13:25:13;;;;;;;5.63;1.98;;;;;;;;;;5060259;28;20470;-87
2021/10/13 13:27:39;;;;;;;2.73;1.40;;;;;;;;;;5062842;28;20216;-87
2021/10/13 13:30:08;;;;;;;2.33;1.45;;;;;;;;;;5059005;28;20449;-91
2021/10/13 13:32:37;;;;;;;2.15;1.30;;;;;;;;;;5053778;28;20286;-87
2021/10/13 13:35:03;;;;;;;9.23;1.60;;;;;;;;;;5063733;28;20169;-90
2021/10/13 13:37:29;;;;;;;5.03;1.35;;;;;;;;;;5055222;28;20201;-86
2021/10/13 13:39:55;;;;;;;2.80;1.50;;;;;;;;;;5060884;28;20648;-89
2021/10/13 13:42:21;;;;;;;3.27;1.40;;;;;;;;;;5059037;28;20523;-86
2021/10/13 13:44:47;;;;;;;4.28;1.30;;;;;;;;;;5059633;28;20456;-85
2021/10/13 13:47:13;;;;;;;1.93;1.20;;;;;;;;;;5057001;28;20208;-87
2021/10/13 13:49:39;;;;;;;5.47;1.50;;;;;;;;;;5056632;28;20415;-87
2021/10/13 13:52:05;;;;;;;2.47;1.20;;;;;;;;;;5058654;28;20468;-86
2021/10/13 13:54:31;;;;;;;2.20;1.00;;;;;;;;;;5057322;28;20182;-87
2021/10/13 13:56:57;;;;;;;4.10;1.10;;;;;;;;;;5074151;28;20431;-85
2021/10/13 13:59:24;;;;;;;1.03;0.93;;;;;;;;;;5054715;28;20187;-86
2021/10/13 14:01:50;;;;;;;3.10;1.40;;;;;;;;;;5057413;28;20413;-83
2021/10/13 14:04:16;;;;;;;2.50;1.30;;;;;;;;;;5053263;28;20273;-86
2021/10/13 14:06:42;;;;;;;2.40;1.40;;;;;;;;;;5064720;28;20410;-87
2021/10/13 14:09:08;;;;;;;2.43;1.20;;;;;;;;;;5059801;28;20571;-88
2021/10/13 14:11:34;;;;;;;3.00;1.40;;;;;;;;;;5072813;28;20464;-86
2021/10/13 14:14:01;;;;;;;2.90;1.17;;;;;;;;;;5059310;28;20415;-86
2021/10/13 14:16:27;;;;;;;2.10;1.10;;;;;;;;;;5054436;28;20434;-86
2021/10/13 14:18:53;;;;;;;1.87;1.30;;;;;;;;;;5054209;28;20437;-85
2021/10/13 14:21:19;;;;;;;3.40;1.43;;;;;;;;;;5058672;28;20443;-86
2021/10/13 14:23:45;;;;;;;1.73;1.20;;;;;;;;;;5070519;28;21042;-84
2021/10/13 14:26:11;;;;;;;3.87;1.30;;;;;;;;;;5058310;28;20489;-81
2021/10/13 14:28:37;;;;;;;4.40;1.50;;;;;;;;;;5057030;28;20415;-78
2021/10/13 14:31:04;;;;;;;2.03;1.23;;;;;;;;;;5057224;28;20510;-86
2021/10/13 14:33:30;;;;;;;1.50;1.30;;;;;;;;;;5056920;28;20443;-86
2021/10/13 14:35:56;;;;;;;3.90;1.73;;;;;;;;;;5058878;28;20434;-86
2021/10/13 14:38:22;;;;;;;3.40;1.60;;;;;;;;;;5055210;28;20424;-85
2021/10/13 14:40:48;;;;;;;3.40;1.60;;;;;;;;;;5059059;28;20430;-85
2021/10/13 14:43:14;;;;;;;3.80;2.27;;;;;;;;;;5057793;28;20426;-85
2021/10/13 14:45:40;;;;;;;4.23;1.87;;;;;;;;;;5054800;28;20430;-84
2021/10/13 14:48:06;;;;;;;1.90;1.20;;;;;;;;;;5072617;28;20407;-87